createdAt,value
2023-01-19T00:01:50.874Z,58.60
2023-01-19T00:04:21.761Z,58.70
2023-01-19T00:06:52.141Z,58.71
2023-01-19T00:09:22.884Z,59.01
2023-01-19T00:11:52.091Z,58.98
2023-01-19T00:14:23.292Z,58.84
2023-01-19T00:16:52.255Z,59.28
2023-01-19T00:19:21.392Z,58.89
2023-01-19T00:21:53.053Z,58.98
2023-01-19T00:24:23.617Z,59.16
2023-01-19T00:26:53.999Z,59.35
2023-01-19T00:29:24.282Z,59.41
2023-01-19T00:31:54.714Z,59.61
2023-01-19T00:34:24.997Z,59.70
2023-01-19T00:36:55.458Z,59.18
2023-01-19T00:39:26.244Z,59.56
2023-01-19T00:42:14.077Z,59.40
2023-01-19T00:44:44.503Z,59.53
2023-01-19T00:47:15.150Z,59.48
2023-01-19T00:49:45.456Z,59.14
2023-01-19T00:52:15.810Z,59.32
2023-01-19T00:54:46.904Z,59.32
2023-01-19T00:57:18.866Z,59.19
2023-01-19T00:59:49.316Z,58.53
2023-01-19T01:02:19.852Z,59.03
2023-01-19T01:04:54.513Z,58.80
2023-01-19T01:07:25.065Z,58.83
2023-01-19T01:09:56.465Z,58.87
2023-01-19T01:12:26.970Z,58.55
2023-01-19T01:14:57.632Z,58.75
2023-01-19T01:17:27.949Z,58.73
2023-01-19T01:19:58.877Z,58.48
2023-01-19T01:22:29.520Z,58.68
2023-01-19T01:25:00.191Z,58.43
2023-01-19T01:27:30.476Z,58.38
2023-01-19T01:30:00.822Z,58.51
2023-01-19T01:32:31.730Z,58.78
2023-01-19T01:35:02.044Z,58.77
2023-01-19T01:37:32.770Z,58.50
2023-01-19T01:40:03.685Z,58.88
2023-01-19T01:42:35.014Z,58.88
2023-01-19T01:45:08.215Z,58.97
2023-01-19T01:47:43.653Z,58.89
2023-01-19T01:50:16.660Z,58.97
2023-01-19T01:53:06.412Z,59.17
2023-01-19T01:55:40.870Z,59.22
2023-01-19T01:58:12.506Z,59.13
2023-01-19T02:01:00.651Z,58.88
2023-01-19T02:03:33.148Z,59.44
2023-01-19T02:06:07.800Z,59.33
2023-01-19T02:08:59.946Z,59.35
2023-01-19T02:11:48.586Z,59.66
2023-01-19T02:14:19.225Z,59.77
2023-01-19T02:16:49.848Z,59.81
2023-01-19T02:19:26.130Z,59.90
2023-01-19T02:22:01.519Z,59.67
2023-01-19T02:24:32.386Z,59.70
2023-01-19T02:27:03.194Z,60.22
2023-01-19T02:29:34.439Z,60.29
2023-01-19T02:32:06.552Z,60.07
2023-01-19T02:34:37.163Z,60.50
2023-01-19T02:37:11.662Z,60.12
2023-01-19T02:39:45.126Z,59.79
2023-01-19T02:42:18.355Z,60.03
2023-01-19T02:44:50.949Z,59.94
2023-01-19T02:47:21.532Z,59.77
2023-01-19T02:49:58.174Z,59.65
2023-01-19T02:52:29.577Z,59.65
2023-01-19T02:55:01.575Z,59.35
2023-01-19T02:57:47.728Z,59.59
2023-01-19T03:00:26.343Z,59.64
2023-01-19T03:03:09.415Z,59.52
2023-01-19T03:05:54.248Z,59.78
2023-01-19T03:08:34.024Z,59.73
2023-01-19T03:11:06.501Z,59.73
2023-01-19T03:13:45.024Z,59.41
2023-01-19T03:16:19.187Z,59.55
2023-01-19T03:18:54.859Z,60.11
2023-01-19T03:21:29.108Z,59.94
2023-01-19T03:24:03.549Z,60.08
2023-01-19T03:26:37.716Z,59.77
2023-01-19T03:29:09.727Z,59.91
2023-01-19T03:31:41.144Z,59.78
2023-01-19T03:34:14.008Z,60.07
2023-01-19T03:36:46.875Z,59.72
2023-01-19T03:39:20.771Z,60.00
2023-01-19T03:41:53.754Z,59.93
2023-01-19T03:44:24.378Z,59.80
2023-01-19T03:46:55.044Z,60.00
2023-01-19T03:49:25.945Z,60.02
2023-01-19T03:51:58.604Z,59.80
2023-01-19T03:54:29.297Z,59.83
2023-01-19T03:56:59.751Z,60.01
2023-01-19T03:59:30.390Z,59.79
2023-01-19T04:02:01.081Z,59.88
2023-01-19T04:04:31.792Z,59.85
2023-01-19T04:07:02.515Z,59.31
2023-01-19T04:09:33.881Z,59.78
2023-01-19T04:12:07.678Z,59.37
2023-01-19T04:14:38.700Z,59.54
2023-01-19T04:17:10.124Z,59.54
2023-01-19T04:19:40.787Z,59.35
2023-01-19T04:22:11.621Z,60.14
2023-01-19T04:24:42.456Z,59.83
2023-01-19T04:27:15.281Z,59.88
2023-01-19T04:29:46.823Z,59.77
2023-01-19T04:32:18.081Z,59.41
2023-01-19T04:34:49.100Z,59.32
2023-01-19T04:37:20.883Z,59.32
2023-01-19T04:39:51.942Z,59.19
2023-01-19T04:42:22.905Z,58.59
2023-01-19T04:44:53.821Z,58.72
2023-01-19T04:47:24.481Z,58.28
2023-01-19T04:49:55.170Z,57.99
2023-01-19T04:52:26.453Z,58.07
2023-01-19T04:54:57.029Z,57.81
2023-01-19T04:57:27.765Z,57.61
2023-01-19T04:59:58.631Z,57.47
2023-01-19T05:02:31.606Z,57.23
2023-01-19T05:05:03.019Z,57.33
2023-01-19T05:07:33.368Z,57.13
2023-01-19T05:10:03.895Z,57.04
2023-01-19T05:12:34.767Z,57.01
2023-01-19T05:15:10.682Z,57.01
2023-01-19T05:17:41.342Z,57.19
2023-01-19T05:20:16.271Z,56.56
2023-01-19T05:22:50.918Z,56.73
2023-01-19T05:25:22.043Z,56.66
2023-01-19T05:27:51.087Z,56.24
2023-01-19T05:30:22.334Z,55.82
2023-01-19T05:32:52.815Z,55.48
2023-01-19T05:35:35.322Z,55.42
2023-01-19T05:38:06.862Z,55.25
2023-01-19T05:40:37.348Z,55.18
2023-01-19T05:43:08.359Z,55.02
2023-01-19T05:45:39.206Z,54.39
2023-01-19T05:48:10.483Z,54.07
2023-01-19T05:50:41.537Z,53.92
2023-01-19T05:53:13.694Z,53.33
2023-01-19T05:55:44.764Z,53.23
2023-01-19T05:58:15.295Z,53.22
2023-01-19T06:00:45.733Z,53.16
2023-01-19T06:03:16.135Z,52.70
2023-01-19T06:05:46.587Z,52.36
2023-01-19T06:08:17.386Z,51.94
2023-01-19T06:10:48.414Z,51.83
2023-01-19T06:13:19.429Z,51.58
2023-01-19T06:15:50.047Z,51.48
2023-01-19T06:18:20.525Z,50.96
2023-01-19T06:20:52.251Z,50.63
2023-01-19T06:23:22.895Z,50.60
2023-01-19T06:25:53.431Z,50.14
2023-01-19T06:28:24.247Z,50.02
2023-01-19T06:30:56.076Z,49.54
2023-01-19T06:33:28.034Z,49.08
2023-01-19T06:35:58.636Z,49.15
2023-01-19T06:38:28.315Z,49.04
2023-01-19T06:40:59.448Z,48.89
2023-01-19T06:43:31.017Z,48.24
2023-01-19T06:46:02.129Z,48.11
2023-01-19T06:48:32.640Z,47.46
2023-01-19T06:51:03.351Z,46.71
2023-01-19T06:53:33.748Z,44.22
2023-01-19T06:56:04.842Z,40.76
2023-01-19T06:58:36.019Z,37.73
2023-01-19T07:01:07.864Z,35.15
2023-01-19T07:03:38.752Z,32.31
2023-01-19T07:06:09.983Z,30.09
2023-01-19T07:08:40.736Z,28.36
2023-01-19T07:11:25.879Z,26.59
2023-01-19T07:14:03.827Z,25.10
2023-01-19T07:16:34.212Z,24.13
2023-01-19T07:19:04.740Z,22.95
2023-01-19T07:21:35.362Z,21.88
2023-01-19T07:24:06.269Z,21.08
2023-01-19T07:26:36.731Z,20.35
2023-01-19T07:29:07.646Z,19.41
2023-01-19T07:31:38.106Z,18.51
2023-01-19T07:34:08.380Z,18.12
2023-01-19T07:36:39.130Z,17.63
2023-01-19T07:39:10.009Z,17.29
2023-01-19T07:41:40.989Z,16.58
2023-01-19T07:44:15.090Z,16.42
2023-01-19T07:46:45.518Z,16.12
2023-01-19T07:49:16.157Z,15.32
2023-01-19T07:51:46.983Z,15.70
2023-01-19T07:54:17.433Z,16.11
2023-01-19T07:56:47.815Z,16.83
2023-01-19T07:59:18.130Z,17.57
2023-01-19T08:01:49.244Z,18.71
2023-01-19T08:04:20.207Z,19.60
2023-01-19T08:06:50.573Z,20.52
2023-01-19T08:09:21.191Z,21.43
2023-01-19T08:11:51.495Z,22.58
2023-01-19T08:14:21.685Z,23.35
2023-01-19T08:16:51.025Z,24.28
2023-01-19T08:19:21.788Z,25.12
2023-01-19T08:21:52.146Z,26.00
2023-01-19T08:24:25.689Z,26.88
2023-01-19T08:27:03.495Z,27.62
2023-01-19T08:29:35.343Z,28.26
2023-01-19T08:32:07.256Z,28.86
2023-01-19T08:34:37.917Z,29.50
2023-01-19T08:37:08.437Z,30.06
2023-01-19T08:39:38.765Z,30.63
2023-01-19T08:42:09.695Z,30.84
2023-01-19T08:44:49.678Z,31.14
2023-01-19T08:47:27.920Z,31.70
2023-01-19T08:49:58.732Z,31.93
2023-01-19T08:52:30.530Z,32.38
2023-01-19T08:55:01.571Z,32.71
2023-01-19T08:57:32.019Z,33.05
2023-01-19T09:00:04.487Z,33.53
2023-01-19T09:02:35.461Z,33.68
2023-01-19T09:05:07.338Z,33.82
2023-01-19T09:07:38.115Z,33.59
2023-01-19T09:10:11.416Z,34.00
2023-01-19T09:12:43.539Z,33.94
2023-01-19T09:15:15.079Z,34.37
2023-01-19T09:17:45.464Z,34.68
2023-01-19T09:20:15.351Z,35.08
2023-01-19T09:22:47.322Z,35.25
2023-01-19T09:25:17.879Z,35.16
2023-01-19T09:27:48.278Z,35.42
2023-01-19T09:30:19.804Z,35.73
2023-01-19T09:32:50.266Z,35.47
2023-01-19T09:35:21.788Z,35.89
2023-01-19T09:37:52.515Z,36.07
2023-01-19T09:40:23.073Z,36.12
2023-01-19T09:42:59.071Z,36.12
2023-01-19T09:45:35.468Z,36.32
2023-01-19T09:48:11.611Z,36.36
2023-01-19T09:50:46.469Z,36.42
2023-01-19T09:53:21.293Z,36.50
2023-01-19T09:55:51.700Z,36.41
2023-01-19T09:58:21.366Z,36.52
2023-01-19T10:00:56.340Z,36.62
2023-01-19T10:03:27.441Z,36.44
2023-01-19T10:06:03.314Z,36.33
2023-01-19T10:08:38.604Z,36.27
2023-01-19T10:11:18.288Z,36.39
2023-01-19T10:13:52.126Z,36.34
2023-01-19T10:16:31.374Z,36.05
2023-01-19T10:19:12.201Z,36.28
2023-01-19T10:21:44.161Z,36.25
2023-01-19T10:24:20.430Z,37.04
2023-01-19T10:26:52.628Z,37.43
2023-01-19T10:29:25.108Z,37.92
2023-01-19T10:32:02.296Z,38.07
2023-01-19T10:34:33.429Z,38.13
2023-01-19T10:37:06.492Z,38.04
2023-01-19T10:39:38.736Z,38.04
2023-01-19T10:42:16.100Z,38.02
2023-01-19T10:44:46.975Z,37.74
2023-01-19T10:47:19.038Z,37.82
2023-01-19T10:49:50.427Z,37.19
2023-01-19T10:52:28.682Z,37.71
2023-01-19T10:54:59.852Z,37.67
2023-01-19T10:57:33.067Z,37.69
2023-01-19T11:00:04.899Z,37.83
2023-01-19T11:02:36.289Z,37.44
2023-01-19T11:05:23.629Z,37.47
2023-01-19T11:07:54.176Z,37.82
2023-01-19T11:10:26.507Z,38.27
2023-01-19T11:13:07.366Z,38.43
2023-01-19T11:15:43.654Z,38.49
2023-01-19T11:18:28.111Z,38.56
2023-01-19T11:21:00.829Z,38.78
2023-01-19T11:23:33.599Z,38.84
2023-01-19T11:26:06.890Z,38.67
2023-01-19T11:28:38.636Z,38.69
2023-01-19T11:31:20.411Z,38.71
2023-01-19T11:33:52.702Z,38.88
2023-01-19T11:36:24.942Z,38.63
2023-01-19T11:38:57.555Z,38.61
2023-01-19T11:41:31.082Z,38.77
2023-01-19T11:44:10.527Z,39.03
2023-01-19T11:46:44.079Z,38.96
2023-01-19T11:49:19.886Z,39.21
2023-01-19T11:51:57.410Z,39.55
2023-01-19T11:54:34.891Z,39.56
2023-01-19T11:57:13.370Z,39.83
2023-01-19T11:59:43.731Z,39.92
2023-01-19T12:02:22.323Z,39.75
2023-01-19T12:04:54.998Z,39.91
2023-01-19T12:07:29.602Z,39.86
2023-01-19T12:10:15.243Z,39.94
2023-01-19T12:12:46.591Z,39.96
2023-01-19T12:15:36.290Z,40.24
2023-01-19T12:18:13.739Z,40.12
2023-01-19T12:20:47.249Z,40.18
2023-01-19T12:23:26.338Z,40.19
2023-01-19T12:26:07.258Z,40.49
2023-01-19T12:28:40.251Z,40.53
2023-01-19T12:31:11.295Z,40.62
2023-01-19T12:33:42.255Z,40.81
2023-01-19T12:36:36.645Z,41.15
2023-01-19T12:39:19.462Z,41.25
2023-01-19T12:41:50.948Z,41.52
2023-01-19T12:44:31.235Z,41.38
2023-01-19T12:47:19.733Z,41.32
2023-01-19T12:49:52.554Z,41.78
2023-01-19T12:52:27.866Z,41.73
2023-01-19T12:55:02.787Z,41.67
2023-01-19T12:57:34.960Z,41.69
2023-01-19T13:00:08.291Z,41.94
2023-01-19T13:02:46.953Z,42.00
2023-01-19T13:05:24.077Z,42.25
2023-01-19T13:08:19.414Z,42.55
2023-01-19T13:11:16.215Z,42.96
2023-01-19T13:14:04.987Z,43.41
2023-01-19T13:17:02.074Z,43.83
2023-01-19T13:19:42.463Z,43.87
2023-01-19T13:23:02.394Z,44.27
2023-01-19T13:25:35.964Z,44.61
2023-01-19T13:28:12.592Z,44.76
2023-01-19T13:31:03.341Z,45.19
2023-01-19T13:33:41.237Z,45.47
2023-01-19T13:36:21.117Z,45.48
2023-01-19T13:38:52.577Z,45.76
2023-01-19T13:41:26.974Z,45.58
2023-01-19T13:44:01.877Z,45.82
2023-01-19T13:46:33.621Z,45.94
2023-01-19T13:49:10.503Z,45.92
2023-01-19T13:51:40.803Z,46.40
2023-01-19T13:54:17.464Z,46.49
2023-01-19T13:56:50.474Z,46.81
2023-01-19T13:59:21.056Z,47.05
2023-01-19T14:01:54.455Z,46.83
2023-01-19T14:04:30.392Z,46.97
2023-01-19T14:07:02.756Z,47.14
2023-01-19T14:09:33.393Z,47.08
2023-01-19T14:12:10.494Z,47.15
2023-01-19T14:14:41.056Z,47.44
2023-01-19T14:17:23.830Z,47.47
2023-01-19T14:19:55.491Z,47.76
2023-01-19T14:22:40.773Z,47.80
2023-01-19T14:25:30.939Z,47.88
2023-01-19T14:28:28.671Z,48.14
2023-01-19T14:31:00.656Z,47.88
2023-01-19T14:33:42.011Z,47.92
2023-01-19T14:36:24.061Z,48.01
2023-01-19T14:38:55.398Z,47.99
2023-01-19T14:41:30.186Z,47.86
2023-01-19T14:44:01.899Z,48.70
2023-01-19T14:46:32.639Z,48.69
2023-01-19T14:49:05.463Z,48.48
2023-01-19T14:51:36.631Z,48.47
2023-01-19T14:54:12.794Z,49.00
2023-01-19T14:56:44.663Z,48.97
2023-01-19T14:59:15.561Z,49.21
2023-01-19T15:01:46.530Z,48.96
2023-01-19T15:04:15.583Z,49.22
2023-01-19T15:06:47.027Z,49.18
2023-01-19T15:09:17.788Z,49.55
2023-01-19T15:11:49.038Z,49.47
2023-01-19T15:14:21.868Z,50.03
2023-01-19T15:16:52.401Z,50.08
2023-01-19T15:19:22.782Z,49.89
2023-01-19T15:21:59.920Z,49.97
2023-01-19T15:24:30.666Z,49.84
2023-01-19T15:27:02.376Z,49.89
2023-01-19T15:29:33.873Z,50.12
2023-01-19T15:32:04.580Z,50.65
2023-01-19T15:34:37.591Z,50.27
2023-01-19T15:37:08.525Z,50.61
2023-01-19T15:39:39.750Z,50.84
2023-01-19T15:42:15.792Z,50.58
2023-01-19T15:44:46.187Z,50.65
2023-01-19T15:47:16.728Z,51.06
2023-01-19T15:49:47.841Z,51.17
2023-01-19T15:52:19.216Z,50.62
2023-01-19T15:54:52.032Z,50.95
2023-01-19T15:57:25.314Z,51.19
2023-01-19T15:59:59.267Z,50.99
2023-01-19T16:02:34.130Z,51.18
2023-01-19T16:05:05.000Z,51.01
2023-01-19T16:07:36.211Z,51.55
2023-01-19T16:10:09.348Z,51.82
2023-01-19T16:12:40.062Z,51.84
2023-01-19T16:15:12.723Z,52.11
2023-01-19T16:17:44.567Z,51.81
2023-01-19T16:20:15.849Z,51.98
2023-01-19T16:22:46.430Z,52.05
2023-01-19T16:25:17.903Z,52.04
2023-01-19T16:27:48.312Z,52.21
2023-01-19T16:30:19.725Z,52.63
2023-01-19T16:32:50.259Z,52.45
2023-01-19T16:35:20.655Z,52.35
2023-01-19T16:37:52.924Z,52.31
2023-01-19T16:40:23.624Z,52.61
2023-01-19T16:42:54.431Z,52.48
2023-01-19T16:45:25.073Z,52.62
2023-01-19T16:47:55.747Z,52.83
2023-01-19T16:50:26.322Z,52.75
2023-01-19T16:53:05.076Z,52.43
2023-01-19T16:55:45.118Z,52.86
2023-01-19T16:58:17.195Z,52.96
2023-01-19T17:00:47.946Z,52.85
2023-01-19T17:03:18.563Z,53.05
2023-01-19T17:05:58.279Z,53.33
2023-01-19T17:08:28.815Z,53.48
2023-01-19T17:11:02.861Z,53.42
2023-01-19T17:13:33.902Z,53.48
2023-01-19T17:16:05.749Z,53.67
2023-01-19T17:18:38.811Z,53.56
2023-01-19T17:21:10.863Z,53.82
2023-01-19T17:23:45.342Z,53.83
2023-01-19T17:26:16.678Z,53.73
2023-01-19T17:28:48.665Z,53.96
2023-01-19T17:31:21.118Z,54.01
2023-01-19T17:33:51.999Z,54.01
2023-01-19T17:36:25.353Z,54.05
2023-01-19T17:38:58.718Z,54.63
2023-01-19T17:41:31.026Z,54.59
2023-01-19T17:44:03.495Z,54.59
2023-01-19T17:46:37.236Z,54.73
2023-01-19T17:49:08.702Z,55.06
2023-01-19T17:51:39.115Z,55.27
2023-01-19T17:54:10.606Z,55.39
2023-01-19T17:56:41.510Z,55.17
2023-01-19T17:59:12.912Z,55.19
2023-01-19T18:01:45.263Z,55.26
2023-01-19T18:04:16.754Z,55.69
2023-01-19T18:06:49.839Z,55.70
2023-01-19T18:09:22.121Z,55.72
2023-01-19T18:11:54.929Z,55.97
2023-01-19T18:14:26.103Z,55.80
2023-01-19T18:16:57.492Z,55.38
2023-01-19T18:19:29.196Z,55.57
2023-01-19T18:21:59.608Z,55.56
2023-01-19T18:24:30.330Z,55.85
2023-01-19T18:27:04.825Z,55.98
2023-01-19T18:29:36.897Z,55.65
2023-01-19T18:32:08.419Z,55.62
2023-01-19T18:34:40.960Z,55.78
2023-01-19T18:37:15.393Z,55.79
2023-01-19T18:39:46.225Z,55.93
2023-01-19T18:42:16.846Z,55.66
2023-01-19T18:44:47.502Z,56.08
2023-01-19T18:47:18.038Z,56.41
2023-01-19T18:49:48.820Z,56.18
2023-01-19T18:52:19.478Z,56.00
2023-01-19T18:54:50.830Z,56.25
2023-01-19T18:57:21.629Z,56.13
2023-01-19T18:59:53.015Z,56.32
2023-01-19T19:02:24.149Z,56.56
2023-01-19T19:04:54.382Z,56.38
2023-01-19T19:07:27.462Z,56.50
2023-01-19T19:09:57.936Z,56.51
2023-01-19T19:12:28.800Z,56.71
2023-01-19T19:14:59.290Z,56.52
2023-01-19T19:17:31.493Z,56.69
2023-01-19T19:20:02.623Z,56.62
2023-01-19T19:22:32.006Z,56.53
2023-01-19T19:25:02.806Z,56.68
2023-01-19T19:27:33.461Z,56.83
2023-01-19T19:30:04.698Z,56.87
2023-01-19T19:32:35.362Z,57.27
2023-01-19T19:35:08.050Z,57.01
2023-01-19T19:37:38.393Z,57.08
2023-01-19T19:40:11.713Z,57.31
2023-01-19T19:42:44.520Z,57.31
2023-01-19T19:45:15.494Z,57.18
2023-01-19T19:47:46.129Z,56.94
2023-01-19T19:50:17.598Z,57.12
2023-01-19T19:52:49.735Z,57.01
2023-01-19T19:55:20.423Z,57.23
2023-01-19T19:57:51.047Z,56.97
2023-01-19T20:00:22.524Z,57.19
2023-01-19T20:02:53.534Z,57.29
2023-01-19T20:05:24.660Z,57.54
2023-01-19T20:07:54.989Z,57.75
2023-01-19T20:10:26.539Z,57.50
2023-01-19T20:12:56.911Z,57.45
2023-01-19T20:15:29.340Z,57.63
2023-01-19T20:18:00.210Z,57.85
2023-01-19T20:20:30.480Z,57.87
2023-01-19T20:23:01.371Z,57.70
2023-01-19T20:25:31.635Z,57.47
2023-01-19T20:28:02.604Z,57.75
2023-01-19T20:30:33.964Z,57.77
2023-01-19T20:33:05.068Z,57.80
2023-01-19T20:35:35.832Z,57.60
2023-01-19T20:38:09.316Z,57.62
2023-01-19T20:40:40.786Z,57.99
2023-01-19T20:43:12.754Z,57.80
2023-01-19T20:45:44.339Z,57.86
2023-01-19T20:48:15.047Z,58.10
2023-01-19T20:50:45.314Z,58.13
2023-01-19T20:53:16.322Z,58.10
2023-01-19T20:55:46.936Z,58.12
2023-01-19T20:58:17.938Z,57.84
2023-01-19T21:00:48.442Z,58.10
2023-01-19T21:03:20.020Z,58.04
2023-01-19T21:05:50.394Z,58.04
2023-01-19T21:08:20.889Z,57.80
2023-01-19T21:10:51.524Z,57.95
2023-01-19T21:13:22.500Z,58.01
2023-01-19T21:15:51.712Z,57.92
2023-01-19T21:18:22.376Z,57.58
2023-01-19T21:20:53.018Z,57.34
2023-01-19T21:23:23.488Z,57.21
2023-01-19T21:25:56.127Z,56.91
2023-01-19T21:28:27.169Z,56.71
2023-01-19T21:30:58.071Z,56.75
2023-01-19T21:33:28.499Z,56.82
2023-01-19T21:35:59.561Z,56.85
2023-01-19T21:38:30.468Z,56.69
2023-01-19T21:41:05.269Z,56.82
2023-01-19T21:43:38.645Z,56.86
2023-01-19T21:46:13.478Z,57.02
2023-01-19T21:48:46.945Z,57.16
2023-01-19T21:51:17.851Z,57.37
2023-01-19T21:53:47.293Z,57.29
2023-01-19T21:56:18.000Z,57.07
2023-01-19T21:58:48.425Z,56.94
2023-01-19T22:01:19.469Z,56.91
2023-01-19T22:03:48.542Z,56.80
2023-01-19T22:06:19.582Z,56.51
2023-01-19T22:08:50.004Z,56.63
2023-01-19T22:11:21.434Z,56.47
2023-01-19T22:13:52.053Z,56.57
2023-01-19T22:16:22.136Z,56.37
2023-01-19T22:18:56.026Z,56.44
2023-01-19T22:21:27.207Z,56.23
2023-01-19T22:23:59.972Z,55.95
2023-01-19T22:26:31.651Z,55.57
2023-01-19T22:29:03.148Z,54.92
2023-01-19T22:31:33.598Z,54.78
2023-01-19T22:34:04.016Z,54.79
2023-01-19T22:36:34.765Z,54.55
2023-01-19T22:39:06.894Z,54.33
2023-01-19T22:41:39.274Z,54.36
2023-01-19T22:44:14.113Z,53.90
2023-01-19T22:46:46.329Z,54.06
2023-01-19T22:49:17.539Z,53.70
2023-01-19T22:51:48.424Z,53.37
2023-01-19T22:54:17.634Z,53.47
2023-01-19T22:56:48.164Z,53.40
2023-01-19T22:59:18.767Z,53.30
2023-01-19T23:01:51.254Z,53.05
2023-01-19T23:04:21.767Z,53.35
2023-01-19T23:06:53.208Z,53.07
2023-01-19T23:09:23.966Z,52.84
2023-01-19T23:11:54.216Z,52.90
2023-01-19T23:14:24.682Z,53.34
2023-01-19T23:16:57.917Z,52.87
2023-01-19T23:19:28.187Z,53.18
2023-01-19T23:21:58.723Z,53.13
2023-01-19T23:24:30.200Z,53.40
2023-01-19T23:27:02.276Z,53.14
2023-01-19T23:29:32.679Z,53.42
2023-01-19T23:32:03.417Z,53.24
2023-01-19T23:34:34.245Z,53.39
2023-01-19T23:37:05.112Z,53.45
2023-01-19T23:39:34.133Z,53.36
2023-01-19T23:42:05.348Z,53.40
2023-01-19T23:44:34.289Z,53.46
2023-01-19T23:47:04.799Z,53.75
2023-01-19T23:49:34.950Z,53.67
2023-01-19T23:52:05.600Z,53.84
2023-01-19T23:54:36.420Z,54.01
2023-01-19T23:57:06.660Z,54.12
2023-01-19T23:59:37.051Z,53.89
